sensor_id;sensor_type;location;lat;lon;timestamp;temperature;humidity
53294;DHT22;39181;53.440;5.644;2023-06-19T00:01:10;20.50;99.90
53294;DHT22;39181;53.440;5.644;2023-06-19T00:03:36;20.60;99.90
53294;DHT22;39181;53.440;5.644;2023-06-19T00:06:01;20.60;99.90
53294;DHT22;39181;53.440;5.644;2023-06-19T00:08:27;20.70;99.90
53294;DHT22;39181;53.440;5.644;2023-06-19T00:10:54;20.70;99.90
53294;DHT22;39181;53.440;5.644;2023-06-19T00:13:20;20.70;99.90
53294;DHT22;39181;53.440;5.644;2023-06-19T00:15:45;20.70;99.90
53294;DHT22;39181;53.440;5.644;2023-06-19T00:18:11;20.70;99.90
53294;DHT22;39181;53.440;5.644;2023-06-19T00:20:37;20.70;99.90
53294;DHT22;39181;53.440;5.644;2023-06-19T00:23:05;20.70;99.90
53294;DHT22;39181;53.440;5.644;2023-06-19T00:25:30;20.70;99.90
53294;DHT22;39181;53.440;5.644;2023-06-19T00:27:56;20.70;99.90
53294;DHT22;39181;53.440;5.644;2023-06-19T00:30:22;20.70;99.90
53294;DHT22;39181;53.440;5.644;2023-06-19T00:32:47;20.70;99.90
53294;DHT22;39181;53.440;5.644;2023-06-19T00:35:16;20.70;99.90
53294;DHT22;39181;53.440;5.644;2023-06-19T00:37:43;20.70;99.90
53294;DHT22;39181;53.440;5.644;2023-06-19T00:40:27;20.80;99.90
53294;DHT22;39181;53.440;5.644;2023-06-19T00:42:53;20.80;99.90
53294;DHT22;39181;53.440;5.644;2023-06-19T00:45:18;20.80;99.90
53294;DHT22;39181;53.440;5.644;2023-06-19T00:47:44;20.70;99.90
53294;DHT22;39181;53.440;5.644;2023-06-19T00:50:11;20.80;99.90
53294;DHT22;39181;53.440;5.644;2023-06-19T00:52:37;20.80;99.90
53294;DHT22;39181;53.440;5.644;2023-06-19T00:55:04;20.70;99.90
53294;DHT22;39181;53.440;5.644;2023-06-19T00:57:30;20.80;99.90
53294;DHT22;39181;53.440;5.644;2023-06-19T00:59:57;20.80;99.90
53294;DHT22;39181;53.440;5.644;2023-06-19T01:02:23;20.80;99.90
53294;DHT22;39181;53.440;5.644;2023-06-19T01:04:50;20.70;99.90
53294;DHT22;39181;53.440;5.644;2023-06-19T01:07:22;20.70;99.90
53294;DHT22;39181;53.440;5.644;2023-06-19T01:09:58;20.70;99.90
53294;DHT22;39181;53.440;5.644;2023-06-19T01:12:33;20.70;99.90
53294;DHT22;39181;53.440;5.644;2023-06-19T01:15:01;20.60;99.90
53294;DHT22;39181;53.440;5.644;2023-06-19T01:17:29;20.60;99.90
53294;DHT22;39181;53.440;5.644;2023-06-19T01:19:59;20.60;99.90
53294;DHT22;39181;53.440;5.644;2023-06-19T01:22:29;20.60;99.90
53294;DHT22;39181;53.440;5.644;2023-06-19T01:24:54;20.60;99.90
53294;DHT22;39181;53.440;5.644;2023-06-19T01:27:21;20.60;99.90
53294;DHT22;39181;53.440;5.644;2023-06-19T01:29:47;20.60;99.90
53294;DHT22;39181;53.440;5.644;2023-06-19T01:32:20;20.60;99.90
53294;DHT22;39181;53.440;5.644;2023-06-19T01:34:48;20.70;99.90
53294;DHT22;39181;53.440;5.644;2023-06-19T01:37:15;20.60;99.90
53294;DHT22;39181;53.440;5.644;2023-06-19T01:39:41;20.70;99.90
53294;DHT22;39181;53.440;5.644;2023-06-19T01:42:07;20.60;99.90
53294;DHT22;39181;53.440;5.644;2023-06-19T01:44:36;20.60;99.90
53294;DHT22;39181;53.440;5.644;2023-06-19T01:47:10;20.60;99.90
53294;DHT22;39181;53.440;5.644;2023-06-19T01:49:37;20.60;99.90
53294;DHT22;39181;53.440;5.644;2023-06-19T01:52:04;20.60;99.90
53294;DHT22;39181;53.440;5.644;2023-06-19T01:54:30;20.50;99.90
53294;DHT22;39181;53.440;5.644;2023-06-19T01:56:56;20.50;99.90
53294;DHT22;39181;53.440;5.644;2023-06-19T01:59:22;20.50;99.90
53294;DHT22;39181;53.440;5.644;2023-06-19T02:01:48;20.50;99.90
53294;DHT22;39181;53.440;5.644;2023-06-19T02:04:13;20.40;99.90
53294;DHT22;39181;53.440;5.644;2023-06-19T02:06:39;20.40;99.90
53294;DHT22;39181;53.440;5.644;2023-06-19T02:09:04;20.40;99.90
53294;DHT22;39181;53.440;5.644;2023-06-19T02:11:30;20.40;99.90
53294;DHT22;39181;53.440;5.644;2023-06-19T02:13:56;20.40;99.90
53294;DHT22;39181;53.440;5.644;2023-06-19T02:16:21;20.40;99.90
53294;DHT22;39181;53.440;5.644;2023-06-19T02:18:47;20.40;99.90
53294;DHT22;39181;53.440;5.644;2023-06-19T02:21:13;20.40;99.90
53294;DHT22;39181;53.440;5.644;2023-06-19T02:23:38;20.40;99.90
53294;DHT22;39181;53.440;5.644;2023-06-19T02:26:04;20.40;99.90
53294;DHT22;39181;53.440;5.644;2023-06-19T02:28:29;20.40;99.90
53294;DHT22;39181;53.440;5.644;2023-06-19T02:30:55;20.30;99.90
53294;DHT22;39181;53.440;5.644;2023-06-19T02:33:21;20.30;99.90
53294;DHT22;39181;53.440;5.644;2023-06-19T02:35:47;20.30;99.90
53294;DHT22;39181;53.440;5.644;2023-06-19T02:38:12;20.30;99.90
53294;DHT22;39181;53.440;5.644;2023-06-19T02:40:38;20.20;99.90
53294;DHT22;39181;53.440;5.644;2023-06-19T02:43:04;20.20;99.90
53294;DHT22;39181;53.440;5.644;2023-06-19T02:45:30;20.20;99.90
53294;DHT22;39181;53.440;5.644;2023-06-19T02:47:55;20.20;99.90
53294;DHT22;39181;53.440;5.644;2023-06-19T02:50:21;20.10;99.90
53294;DHT22;39181;53.440;5.644;2023-06-19T02:52:47;20.10;99.90
53294;DHT22;39181;53.440;5.644;2023-06-19T02:55:12;20.10;99.90
53294;DHT22;39181;53.440;5.644;2023-06-19T02:57:38;20.10;99.90
53294;DHT22;39181;53.440;5.644;2023-06-19T03:00:04;20.00;99.90
53294;DHT22;39181;53.440;5.644;2023-06-19T03:02:34;20.00;99.90
53294;DHT22;39181;53.440;5.644;2023-06-19T03:05:01;20.00;99.90
53294;DHT22;39181;53.440;5.644;2023-06-19T03:07:26;19.90;99.90
53294;DHT22;39181;53.440;5.644;2023-06-19T03:09:54;20.00;99.90
53294;DHT22;39181;53.440;5.644;2023-06-19T03:12:19;20.00;99.90
53294;DHT22;39181;53.440;5.644;2023-06-19T03:14:45;19.90;99.90
53294;DHT22;39181;53.440;5.644;2023-06-19T03:17:12;19.90;99.90
53294;DHT22;39181;53.440;5.644;2023-06-19T03:19:37;19.90;99.90
53294;DHT22;39181;53.440;5.644;2023-06-19T03:22:03;19.90;99.90
53294;DHT22;39181;53.440;5.644;2023-06-19T03:24:28;19.90;99.90
53294;DHT22;39181;53.440;5.644;2023-06-19T03:26:54;19.80;99.90
53294;DHT22;39181;53.440;5.644;2023-06-19T03:29:20;19.80;99.90
53294;DHT22;39181;53.440;5.644;2023-06-19T03:31:45;19.80;99.90
53294;DHT22;39181;53.440;5.644;2023-06-19T03:34:11;20.00;99.90
53294;DHT22;39181;53.440;5.644;2023-06-19T03:36:37;19.90;99.90
53294;DHT22;39181;53.440;5.644;2023-06-19T03:39:04;19.90;99.90
53294;DHT22;39181;53.440;5.644;2023-06-19T03:41:29;20.00;99.90
53294;DHT22;39181;53.440;5.644;2023-06-19T03:43:55;20.10;99.90
53294;DHT22;39181;53.440;5.644;2023-06-19T03:46:20;20.10;99.90
53294;DHT22;39181;53.440;5.644;2023-06-19T03:48:46;20.20;99.90
53294;DHT22;39181;53.440;5.644;2023-06-19T03:51:12;20.20;99.90
53294;DHT22;39181;53.440;5.644;2023-06-19T03:53:37;20.20;99.90
53294;DHT22;39181;53.440;5.644;2023-06-19T03:56:03;20.30;99.90
53294;DHT22;39181;53.440;5.644;2023-06-19T03:58:28;20.30;99.90
53294;DHT22;39181;53.440;5.644;2023-06-19T04:00:54;20.40;99.90
53294;DHT22;39181;53.440;5.644;2023-06-19T04:03:19;20.40;99.90
53294;DHT22;39181;53.440;5.644;2023-06-19T04:05:45;20.40;99.90
53294;DHT22;39181;53.440;5.644;2023-06-19T04:08:10;20.40;99.90
53294;DHT22;39181;53.440;5.644;2023-06-19T04:10:36;20.40;99.90
53294;DHT22;39181;53.440;5.644;2023-06-19T04:13:02;20.40;99.90
53294;DHT22;39181;53.440;5.644;2023-06-19T04:15:28;20.40;99.90
53294;DHT22;39181;53.440;5.644;2023-06-19T04:17:53;20.40;99.90
53294;DHT22;39181;53.440;5.644;2023-06-19T04:20:19;20.40;99.90
53294;DHT22;39181;53.440;5.644;2023-06-19T04:22:45;20.40;99.90
53294;DHT22;39181;53.440;5.644;2023-06-19T04:25:10;20.40;99.90
53294;DHT22;39181;53.440;5.644;2023-06-19T04:27:36;20.50;99.90
53294;DHT22;39181;53.440;5.644;2023-06-19T04:30:03;20.50;99.90
53294;DHT22;39181;53.440;5.644;2023-06-19T04:32:29;20.50;99.90
53294;DHT22;39181;53.440;5.644;2023-06-19T04:34:55;20.60;99.90
53294;DHT22;39181;53.440;5.644;2023-06-19T04:37:21;20.60;99.90
53294;DHT22;39181;53.440;5.644;2023-06-19T04:39:46;20.60;99.90
53294;DHT22;39181;53.440;5.644;2023-06-19T04:42:16;20.50;99.90
53294;DHT22;39181;53.440;5.644;2023-06-19T04:44:49;20.60;99.90
53294;DHT22;39181;53.440;5.644;2023-06-19T04:47:17;20.50;99.90
53294;DHT22;39181;53.440;5.644;2023-06-19T04:49:43;20.50;99.90
53294;DHT22;39181;53.440;5.644;2023-06-19T04:52:09;20.50;99.90
53294;DHT22;39181;53.440;5.644;2023-06-19T04:54:34;20.50;99.90
53294;DHT22;39181;53.440;5.644;2023-06-19T04:57:00;20.40;99.90
53294;DHT22;39181;53.440;5.644;2023-06-19T04:59:26;20.50;99.90
53294;DHT22;39181;53.440;5.644;2023-06-19T05:01:52;20.50;99.90
53294;DHT22;39181;53.440;5.644;2023-06-19T05:04:20;20.50;99.90
53294;DHT22;39181;53.440;5.644;2023-06-19T05:06:45;20.50;99.90
53294;DHT22;39181;53.440;5.644;2023-06-19T05:09:11;20.60;99.90
53294;DHT22;39181;53.440;5.644;2023-06-19T05:11:37;20.60;99.90
53294;DHT22;39181;53.440;5.644;2023-06-19T05:14:02;20.60;99.90
53294;DHT22;39181;53.440;5.644;2023-06-19T05:16:28;20.60;99.90
53294;DHT22;39181;53.440;5.644;2023-06-19T05:18:54;20.60;99.90
53294;DHT22;39181;53.440;5.644;2023-06-19T05:21:20;20.60;99.90
53294;DHT22;39181;53.440;5.644;2023-06-19T05:23:48;20.60;99.90
53294;DHT22;39181;53.440;5.644;2023-06-19T05:26:19;20.60;99.90
53294;DHT22;39181;53.440;5.644;2023-06-19T05:28:46;20.50;99.90
53294;DHT22;39181;53.440;5.644;2023-06-19T05:31:11;20.50;99.90
53294;DHT22;39181;53.440;5.644;2023-06-19T05:33:37;20.50;99.90
53294;DHT22;39181;53.440;5.644;2023-06-19T05:36:03;20.50;99.90
53294;DHT22;39181;53.440;5.644;2023-06-19T05:38:28;20.50;99.90
53294;DHT22;39181;53.440;5.644;2023-06-19T05:40:56;20.50;99.90
53294;DHT22;39181;53.440;5.644;2023-06-19T05:43:22;20.50;99.90
53294;DHT22;39181;53.440;5.644;2023-06-19T05:45:47;20.50;99.90
53294;DHT22;39181;53.440;5.644;2023-06-19T05:48:13;20.60;99.90
53294;DHT22;39181;53.440;5.644;2023-06-19T05:50:39;20.60;99.90
53294;DHT22;39181;53.440;5.644;2023-06-19T05:53:05;20.60;99.90
53294;DHT22;39181;53.440;5.644;2023-06-19T05:55:30;20.70;99.90
53294;DHT22;39181;53.440;5.644;2023-06-19T05:57:56;20.80;99.90
53294;DHT22;39181;53.440;5.644;2023-06-19T06:00:22;20.90;99.90
53294;DHT22;39181;53.440;5.644;2023-06-19T06:02:48;20.90;99.90
53294;DHT22;39181;53.440;5.644;2023-06-19T06:05:13;21.10;99.90
53294;DHT22;39181;53.440;5.644;2023-06-19T06:07:39;21.10;99.90
53294;DHT22;39181;53.440;5.644;2023-06-19T06:10:06;21.20;99.90
53294;DHT22;39181;53.440;5.644;2023-06-19T06:12:34;21.20;99.90
53294;DHT22;39181;53.440;5.644;2023-06-19T06:15:04;21.20;99.90
53294;DHT22;39181;53.440;5.644;2023-06-19T06:17:30;21.20;99.90
53294;DHT22;39181;53.440;5.644;2023-06-19T06:19:55;21.20;99.90
53294;DHT22;39181;53.440;5.644;2023-06-19T06:22:21;21.20;99.90
53294;DHT22;39181;53.440;5.644;2023-06-19T06:24:46;21.20;99.90
53294;DHT22;39181;53.440;5.644;2023-06-19T06:27:12;21.20;99.90
53294;DHT22;39181;53.440;5.644;2023-06-19T06:29:38;21.40;99.90
53294;DHT22;39181;53.440;5.644;2023-06-19T06:32:05;21.80;99.90
53294;DHT22;39181;53.440;5.644;2023-06-19T06:34:32;22.00;99.90
53294;DHT22;39181;53.440;5.644;2023-06-19T06:36:58;22.20;99.90
53294;DHT22;39181;53.440;5.644;2023-06-19T06:39:24;22.60;99.90
53294;DHT22;39181;53.440;5.644;2023-06-19T06:41:50;23.20;99.90
53294;DHT22;39181;53.440;5.644;2023-06-19T06:44:15;23.40;99.90
53294;DHT22;39181;53.440;5.644;2023-06-19T06:46:41;23.50;99.90
53294;DHT22;39181;53.440;5.644;2023-06-19T06:49:06;23.70;99.90
53294;DHT22;39181;53.440;5.644;2023-06-19T06:51:32;23.90;99.90
53294;DHT22;39181;53.440;5.644;2023-06-19T06:53:57;23.90;99.90
53294;DHT22;39181;53.440;5.644;2023-06-19T06:56:23;23.90;99.90
53294;DHT22;39181;53.440;5.644;2023-06-19T06:58:49;24.10;99.90
53294;DHT22;39181;53.440;5.644;2023-06-19T07:01:14;24.30;99.90
53294;DHT22;39181;53.440;5.644;2023-06-19T07:03:40;24.50;99.90
53294;DHT22;39181;53.440;5.644;2023-06-19T07:06:06;24.60;99.90
53294;DHT22;39181;53.440;5.644;2023-06-19T07:08:31;24.50;99.90
53294;DHT22;39181;53.440;5.644;2023-06-19T07:10:57;24.60;99.90
53294;DHT22;39181;53.440;5.644;2023-06-19T07:13:23;24.70;99.90
53294;DHT22;39181;53.440;5.644;2023-06-19T07:15:48;24.70;99.90
53294;DHT22;39181;53.440;5.644;2023-06-19T07:18:14;24.50;99.90
53294;DHT22;39181;53.440;5.644;2023-06-19T07:20:39;24.50;99.90
53294;DHT22;39181;53.440;5.644;2023-06-19T07:23:05;24.60;99.90
53294;DHT22;39181;53.440;5.644;2023-06-19T07:25:31;24.50;99.90
53294;DHT22;39181;53.440;5.644;2023-06-19T07:27:59;24.30;99.90
53294;DHT22;39181;53.440;5.644;2023-06-19T07:30:26;24.00;99.90
53294;DHT22;39181;53.440;5.644;2023-06-19T07:32:52;23.60;99.90
53294;DHT22;39181;53.440;5.644;2023-06-19T07:35:17;23.40;99.90
53294;DHT22;39181;53.440;5.644;2023-06-19T07:37:44;23.20;99.90
53294;DHT22;39181;53.440;5.644;2023-06-19T07:40:10;22.90;99.90
53294;DHT22;39181;53.440;5.644;2023-06-19T07:42:36;22.70;99.90
53294;DHT22;39181;53.440;5.644;2023-06-19T07:45:02;22.50;99.90
53294;DHT22;39181;53.440;5.644;2023-06-19T07:47:27;22.30;99.90
53294;DHT22;39181;53.440;5.644;2023-06-19T07:49:53;22.10;99.90
53294;DHT22;39181;53.440;5.644;2023-06-19T07:52:18;21.70;99.90
53294;DHT22;39181;53.440;5.644;2023-06-19T07:54:57;21.50;99.90
53294;DHT22;39181;53.440;5.644;2023-06-19T07:57:23;21.20;99.90
53294;DHT22;39181;53.440;5.644;2023-06-19T07:59:50;21.10;99.90
53294;DHT22;39181;53.440;5.644;2023-06-19T08:02:16;20.90;99.90
53294;DHT22;39181;53.440;5.644;2023-06-19T08:04:43;20.80;99.90
53294;DHT22;39181;53.440;5.644;2023-06-19T08:07:08;20.60;99.90
53294;DHT22;39181;53.440;5.644;2023-06-19T08:09:34;20.50;99.90
53294;DHT22;39181;53.440;5.644;2023-06-19T08:12:00;20.20;99.90
53294;DHT22;39181;53.440;5.644;2023-06-19T08:14:26;20.10;99.90
53294;DHT22;39181;53.440;5.644;2023-06-19T08:16:52;19.90;99.90
53294;DHT22;39181;53.440;5.644;2023-06-19T08:19:17;19.90;99.90
53294;DHT22;39181;53.440;5.644;2023-06-19T08:21:43;19.90;99.90
53294;DHT22;39181;53.440;5.644;2023-06-19T08:24:08;19.80;99.90
53294;DHT22;39181;53.440;5.644;2023-06-19T08:26:34;19.80;99.90
53294;DHT22;39181;53.440;5.644;2023-06-19T08:28:59;19.80;99.90
53294;DHT22;39181;53.440;5.644;2023-06-19T08:31:25;19.80;99.90
53294;DHT22;39181;53.440;5.644;2023-06-19T08:33:54;19.80;99.90
53294;DHT22;39181;53.440;5.644;2023-06-19T08:36:20;19.80;99.90
53294;DHT22;39181;53.440;5.644;2023-06-19T08:38:45;19.70;99.90
53294;DHT22;39181;53.440;5.644;2023-06-19T08:41:15;19.70;99.90
53294;DHT22;39181;53.440;5.644;2023-06-19T08:43:41;19.70;99.90
53294;DHT22;39181;53.440;5.644;2023-06-19T08:46:18;19.80;99.90
53294;DHT22;39181;53.440;5.644;2023-06-19T08:48:44;19.90;99.90
53294;DHT22;39181;53.440;5.644;2023-06-19T08:51:11;20.00;99.90
53294;DHT22;39181;53.440;5.644;2023-06-19T08:53:48;20.00;99.90
53294;DHT22;39181;53.440;5.644;2023-06-19T08:56:16;20.00;99.90
53294;DHT22;39181;53.440;5.644;2023-06-19T08:58:42;20.00;99.90
53294;DHT22;39181;53.440;5.644;2023-06-19T09:01:08;19.90;99.90
53294;DHT22;39181;53.440;5.644;2023-06-19T09:03:34;19.90;99.90
53294;DHT22;39181;53.440;5.644;2023-06-19T09:06:03;19.80;99.90
53294;DHT22;39181;53.440;5.644;2023-06-19T09:08:29;19.90;99.90
53294;DHT22;39181;53.440;5.644;2023-06-19T09:11:02;19.70;99.90
53294;DHT22;39181;53.440;5.644;2023-06-19T09:13:28;19.80;99.90
53294;DHT22;39181;53.440;5.644;2023-06-19T09:18:29;19.70;99.90
53294;DHT22;39181;53.440;5.644;2023-06-19T09:20:56;19.70;99.90
53294;DHT22;39181;53.440;5.644;2023-06-19T09:23:21;19.80;99.90
53294;DHT22;39181;53.440;5.644;2023-06-19T09:25:48;19.90;99.90
53294;DHT22;39181;53.440;5.644;2023-06-19T09:28:22;20.00;99.90
53294;DHT22;39181;53.440;5.644;2023-06-19T09:30:52;20.10;99.90
53294;DHT22;39181;53.440;5.644;2023-06-19T09:33:18;20.20;99.90
53294;DHT22;39181;53.440;5.644;2023-06-19T09:35:43;20.30;99.90
53294;DHT22;39181;53.440;5.644;2023-06-19T09:38:10;20.50;99.90
53294;DHT22;39181;53.440;5.644;2023-06-19T09:40:37;20.60;99.90
53294;DHT22;39181;53.440;5.644;2023-06-19T09:43:03;20.90;99.90
53294;DHT22;39181;53.440;5.644;2023-06-19T09:45:31;20.90;99.90
53294;DHT22;39181;53.440;5.644;2023-06-19T09:47:57;21.10;99.90
53294;DHT22;39181;53.440;5.644;2023-06-19T09:50:24;21.10;99.90
53294;DHT22;39181;53.440;5.644;2023-06-19T09:52:52;21.20;99.90
53294;DHT22;39181;53.440;5.644;2023-06-19T09:55:22;21.30;99.90
53294;DHT22;39181;53.440;5.644;2023-06-19T09:57:49;21.50;99.90
53294;DHT22;39181;53.440;5.644;2023-06-19T10:00:15;21.70;99.90
53294;DHT22;39181;53.440;5.644;2023-06-19T10:02:47;21.80;99.90
53294;DHT22;39181;53.440;5.644;2023-06-19T10:05:13;22.10;99.90
53294;DHT22;39181;53.440;5.644;2023-06-19T10:07:43;22.30;99.90
53294;DHT22;39181;53.440;5.644;2023-06-19T10:10:11;22.40;99.90
53294;DHT22;39181;53.440;5.644;2023-06-19T10:12:46;22.50;99.90
53294;DHT22;39181;53.440;5.644;2023-06-19T10:18:02;22.50;99.90
53294;DHT22;39181;53.440;5.644;2023-06-19T10:23:10;22.20;99.90
53294;DHT22;39181;53.440;5.644;2023-06-19T10:25:39;22.10;99.90
53294;DHT22;39181;53.440;5.644;2023-06-19T10:28:26;22.00;99.90
53294;DHT22;39181;53.440;5.644;2023-06-19T10:30:54;22.00;99.90
53294;DHT22;39181;53.440;5.644;2023-06-19T10:33:20;22.00;99.90
53294;DHT22;39181;53.440;5.644;2023-06-19T10:35:46;21.90;99.90
53294;DHT22;39181;53.440;5.644;2023-06-19T10:38:15;21.90;99.90
53294;DHT22;39181;53.440;5.644;2023-06-19T10:40:42;22.00;99.90
53294;DHT22;39181;53.440;5.644;2023-06-19T10:43:09;22.20;99.90
53294;DHT22;39181;53.440;5.644;2023-06-19T10:45:34;22.40;99.90
53294;DHT22;39181;53.440;5.644;2023-06-19T10:48:01;22.50;99.90
53294;DHT22;39181;53.440;5.644;2023-06-19T10:50:28;22.50;99.90
53294;DHT22;39181;53.440;5.644;2023-06-19T10:52:54;22.50;99.90
53294;DHT22;39181;53.440;5.644;2023-06-19T10:55:22;22.50;99.90
53294;DHT22;39181;53.440;5.644;2023-06-19T10:57:49;22.40;99.90
53294;DHT22;39181;53.440;5.644;2023-06-19T11:00:28;22.40;99.90
53294;DHT22;39181;53.440;5.644;2023-06-19T11:02:58;22.40;99.90
53294;DHT22;39181;53.440;5.644;2023-06-19T11:05:25;22.30;99.90
53294;DHT22;39181;53.440;5.644;2023-06-19T11:07:52;22.10;99.90
53294;DHT22;39181;53.440;5.644;2023-06-19T11:10:23;22.10;99.90
53294;DHT22;39181;53.440;5.644;2023-06-19T11:12:52;22.10;99.90
53294;DHT22;39181;53.440;5.644;2023-06-19T11:15:18;22.10;99.90
53294;DHT22;39181;53.440;5.644;2023-06-19T11:17:44;22.30;99.90
53294;DHT22;39181;53.440;5.644;2023-06-19T11:20:12;22.60;99.90
53294;DHT22;39181;53.440;5.644;2023-06-19T11:22:40;23.00;99.90
53294;DHT22;39181;53.440;5.644;2023-06-19T11:25:07;23.30;99.90
53294;DHT22;39181;53.440;5.644;2023-06-19T11:27:33;23.60;99.90
53294;DHT22;39181;53.440;5.644;2023-06-19T11:30:00;23.70;99.90
53294;DHT22;39181;53.440;5.644;2023-06-19T11:32:37;23.90;99.90
53294;DHT22;39181;53.440;5.644;2023-06-19T11:35:09;23.70;99.90
53294;DHT22;39181;53.440;5.644;2023-06-19T11:37:35;24.10;99.90
53294;DHT22;39181;53.440;5.644;2023-06-19T11:40:01;24.10;99.90
53294;DHT22;39181;53.440;5.644;2023-06-19T11:42:30;24.20;99.90
53294;DHT22;39181;53.440;5.644;2023-06-19T11:44:56;24.40;99.90
53294;DHT22;39181;53.440;5.644;2023-06-19T11:47:23;24.50;99.90
53294;DHT22;39181;53.440;5.644;2023-06-19T11:49:49;24.60;99.90
53294;DHT22;39181;53.440;5.644;2023-06-19T11:52:16;24.80;99.90
53294;DHT22;39181;53.440;5.644;2023-06-19T11:54:41;24.80;99.90
53294;DHT22;39181;53.440;5.644;2023-06-19T11:57:09;24.90;99.90
53294;DHT22;39181;53.440;5.644;2023-06-19T11:59:41;25.00;99.90
53294;DHT22;39181;53.440;5.644;2023-06-19T12:02:07;24.80;99.90
53294;DHT22;39181;53.440;5.644;2023-06-19T12:04:33;24.90;99.90
53294;DHT22;39181;53.440;5.644;2023-06-19T12:06:59;24.90;99.90
53294;DHT22;39181;53.440;5.644;2023-06-19T12:09:25;25.00;99.90
53294;DHT22;39181;53.440;5.644;2023-06-19T12:11:50;25.20;99.90
53294;DHT22;39181;53.440;5.644;2023-06-19T12:14:16;25.20;99.90
53294;DHT22;39181;53.440;5.644;2023-06-19T12:16:45;25.30;99.90
53294;DHT22;39181;53.440;5.644;2023-06-19T12:19:10;25.30;99.90
53294;DHT22;39181;53.440;5.644;2023-06-19T12:21:36;25.20;99.90
53294;DHT22;39181;53.440;5.644;2023-06-19T12:24:03;25.30;99.90
53294;DHT22;39181;53.440;5.644;2023-06-19T12:26:29;25.20;99.90
53294;DHT22;39181;53.440;5.644;2023-06-19T12:28:55;25.20;99.90
53294;DHT22;39181;53.440;5.644;2023-06-19T12:31:20;25.10;99.90
53294;DHT22;39181;53.440;5.644;2023-06-19T12:33:46;25.00;99.90
53294;DHT22;39181;53.440;5.644;2023-06-19T12:36:14;24.90;99.90
53294;DHT22;39181;53.440;5.644;2023-06-19T12:38:40;24.90;99.90
53294;DHT22;39181;53.440;5.644;2023-06-19T12:41:06;24.80;99.90
53294;DHT22;39181;53.440;5.644;2023-06-19T12:43:31;24.70;99.90
53294;DHT22;39181;53.440;5.644;2023-06-19T12:45:57;24.70;99.90
53294;DHT22;39181;53.440;5.644;2023-06-19T12:48:25;24.70;99.90
53294;DHT22;39181;53.440;5.644;2023-06-19T12:50:51;24.60;99.90
53294;DHT22;39181;53.440;5.644;2023-06-19T12:53:16;24.70;99.90
53294;DHT22;39181;53.440;5.644;2023-06-19T12:55:42;24.70;99.90
53294;DHT22;39181;53.440;5.644;2023-06-19T12:58:08;24.70;99.90
53294;DHT22;39181;53.440;5.644;2023-06-19T13:00:34;24.60;99.90
53294;DHT22;39181;53.440;5.644;2023-06-19T13:03:00;24.60;99.90
53294;DHT22;39181;53.440;5.644;2023-06-19T13:05:25;24.60;99.90
53294;DHT22;39181;53.440;5.644;2023-06-19T13:07:51;24.70;99.90
53294;DHT22;39181;53.440;5.644;2023-06-19T13:10:17;24.60;99.90
53294;DHT22;39181;53.440;5.644;2023-06-19T13:12:42;24.50;99.90
53294;DHT22;39181;53.440;5.644;2023-06-19T13:15:08;24.50;99.90
53294;DHT22;39181;53.440;5.644;2023-06-19T13:17:34;24.70;99.90
53294;DHT22;39181;53.440;5.644;2023-06-19T13:20:00;24.70;99.90
53294;DHT22;39181;53.440;5.644;2023-06-19T13:22:25;24.60;99.90
53294;DHT22;39181;53.440;5.644;2023-06-19T13:24:51;24.60;99.90
53294;DHT22;39181;53.440;5.644;2023-06-19T13:27:17;24.70;99.90
53294;DHT22;39181;53.440;5.644;2023-06-19T13:29:43;24.70;99.90
53294;DHT22;39181;53.440;5.644;2023-06-19T13:32:09;24.50;99.90
53294;DHT22;39181;53.440;5.644;2023-06-19T13:34:34;24.40;99.90
53294;DHT22;39181;53.440;5.644;2023-06-19T13:37:00;24.30;99.90
53294;DHT22;39181;53.440;5.644;2023-06-19T13:39:26;24.10;99.90
53294;DHT22;39181;53.440;5.644;2023-06-19T13:41:51;24.20;99.90
53294;DHT22;39181;53.440;5.644;2023-06-19T13:44:17;24.10;99.90
53294;DHT22;39181;53.440;5.644;2023-06-19T13:46:44;24.00;99.90
53294;DHT22;39181;53.440;5.644;2023-06-19T13:49:10;24.10;99.90
53294;DHT22;39181;53.440;5.644;2023-06-19T13:51:36;23.90;99.90
53294;DHT22;39181;53.440;5.644;2023-06-19T13:54:02;23.90;99.90
53294;DHT22;39181;53.440;5.644;2023-06-19T13:56:30;24.00;99.90
53294;DHT22;39181;53.440;5.644;2023-06-19T13:58:57;24.00;99.90
53294;DHT22;39181;53.440;5.644;2023-06-19T14:01:23;24.00;99.90
53294;DHT22;39181;53.440;5.644;2023-06-19T14:03:51;24.00;99.90
53294;DHT22;39181;53.440;5.644;2023-06-19T14:06:17;23.80;99.90
53294;DHT22;39181;53.440;5.644;2023-06-19T14:08:43;24.00;99.90
53294;DHT22;39181;53.440;5.644;2023-06-19T14:11:08;24.00;99.90
53294;DHT22;39181;53.440;5.644;2023-06-19T14:13:34;24.00;99.90
53294;DHT22;39181;53.440;5.644;2023-06-19T14:16:01;23.90;99.90
53294;DHT22;39181;53.440;5.644;2023-06-19T14:18:27;23.90;99.90
53294;DHT22;39181;53.440;5.644;2023-06-19T14:20:52;23.80;99.90
53294;DHT22;39181;53.440;5.644;2023-06-19T14:23:18;23.70;99.90
53294;DHT22;39181;53.440;5.644;2023-06-19T14:25:43;23.80;99.90
53294;DHT22;39181;53.440;5.644;2023-06-19T14:28:09;23.70;99.90
53294;DHT22;39181;53.440;5.644;2023-06-19T14:30:35;23.80;99.90
53294;DHT22;39181;53.440;5.644;2023-06-19T14:33:00;23.80;99.90
53294;DHT22;39181;53.440;5.644;2023-06-19T14:35:27;23.90;99.90
53294;DHT22;39181;53.440;5.644;2023-06-19T14:37:52;23.90;99.90
53294;DHT22;39181;53.440;5.644;2023-06-19T14:40:18;23.80;99.90
53294;DHT22;39181;53.440;5.644;2023-06-19T14:42:44;23.70;99.90
53294;DHT22;39181;53.440;5.644;2023-06-19T14:45:09;23.90;99.90
53294;DHT22;39181;53.440;5.644;2023-06-19T14:47:35;23.90;99.90
53294;DHT22;39181;53.440;5.644;2023-06-19T14:50:01;23.70;99.90
53294;DHT22;39181;53.440;5.644;2023-06-19T14:52:26;23.60;99.90
53294;DHT22;39181;53.440;5.644;2023-06-19T14:54:52;23.70;99.90
53294;DHT22;39181;53.440;5.644;2023-06-19T14:57:18;23.70;99.90
53294;DHT22;39181;53.440;5.644;2023-06-19T14:59:43;23.60;99.90
53294;DHT22;39181;53.440;5.644;2023-06-19T15:02:09;23.60;99.90
53294;DHT22;39181;53.440;5.644;2023-06-19T15:04:36;23.70;99.90
53294;DHT22;39181;53.440;5.644;2023-06-19T15:07:02;23.50;99.90
53294;DHT22;39181;53.440;5.644;2023-06-19T15:09:27;23.60;99.90
53294;DHT22;39181;53.440;5.644;2023-06-19T15:11:53;23.70;99.90
53294;DHT22;39181;53.440;5.644;2023-06-19T15:14:19;23.70;99.90
53294;DHT22;39181;53.440;5.644;2023-06-19T15:16:45;23.80;99.90
53294;DHT22;39181;53.440;5.644;2023-06-19T15:19:10;23.90;99.90
53294;DHT22;39181;53.440;5.644;2023-06-19T15:21:36;23.70;99.90
53294;DHT22;39181;53.440;5.644;2023-06-19T15:24:02;23.80;99.90
53294;DHT22;39181;53.440;5.644;2023-06-19T15:26:27;23.80;99.90
53294;DHT22;39181;53.440;5.644;2023-06-19T15:28:53;23.80;99.90
53294;DHT22;39181;53.440;5.644;2023-06-19T15:31:22;23.90;99.90
53294;DHT22;39181;53.440;5.644;2023-06-19T15:33:48;23.90;99.90